Time;durP1;ratioP1;P1;durP2;ratioP2;P2;SDS_P1;SDS_P2;PMS_P1;PMS_P2;Temp;Humidity;BMP_temperature;BMP_pressure;BME280_temperature;BME280_humidity;BME280_pressure;Samples;Min_cycle;Max_cycle;Signal;HPM_P1;HPM_P2
2022/03/06 00:02:09;;;;;;;27.15;15.77;;;6.50;53.00;;;;;;5051445;28;20102;-71
2022/03/06 00:04:35;;;;;;;27.85;15.65;;;6.40;53.10;;;;;;5037300;28;20026;-71
2022/03/06 00:07:01;;;;;;;28.27;16.13;;;6.40;53.10;;;;;;5045450;28;20120;-70
2022/03/06 00:09:27;;;;;;;28.88;15.25;;;6.40;53.20;;;;;;5042620;28;20036;-70
2022/03/06 00:11:53;;;;;;;29.33;16.45;;;6.40;53.20;;;;;;5050457;28;20076;-70
2022/03/06 00:14:19;;;;;;;25.90;15.73;;;6.30;53.20;;;;;;5048506;28;20075;-70
2022/03/06 00:16:45;;;;;;;28.58;16.23;;;6.30;53.30;;;;;;5039837;28;20446;-70
2022/03/06 00:19:11;;;;;;;26.38;15.07;;;6.30;53.30;;;;;;5036069;28;20052;-70
2022/03/06 00:21:37;;;;;;;27.40;14.73;;;6.30;53.50;;;;;;5034727;28;20068;-70
2022/03/06 00:24:03;;;;;;;26.90;15.93;;;6.30;53.50;;;;;;5039078;28;20025;-70
2022/03/06 00:26:29;;;;;;;28.42;16.45;;;6.20;53.60;;;;;;5047932;28;20029;-71
2022/03/06 00:28:55;;;;;;;27.67;15.27;;;6.20;53.80;;;;;;5044011;28;20072;-70
2022/03/06 00:31:23;;;;;;;24.10;14.18;;;6.10;53.80;;;;;;5017307;28;20041;-71
2022/03/06 00:33:49;;;;;;;26.05;14.07;;;6.10;53.90;;;;;;5042375;28;20108;-71
2022/03/06 00:36:15;;;;;;;26.42;14.05;;;6.10;54.00;;;;;;5027563;28;20025;-71
2022/03/06 00:38:40;;;;;;;29.15;15.00;;;6.10;54.00;;;;;;5050577;28;20083;-70
2022/03/06 00:41:06;;;;;;;28.38;15.40;;;6.10;54.10;;;;;;5053329;28;20068;-70
2022/03/06 00:43:32;;;;;;;26.13;14.23;;;6.10;54.10;;;;;;5049225;28;20116;-70
2022/03/06 00:45:57;;;;;;;27.75;14.80;;;6.00;54.10;;;;;;5043250;28;20432;-70
2022/03/06 00:48:23;;;;;;;22.48;14.15;;;6.00;54.20;;;;;;5035309;28;20036;-70
2022/03/06 00:50:49;;;;;;;25.30;13.90;;;6.00;54.30;;;;;;5053084;28;20028;-70
2022/03/06 00:53:15;;;;;;;26.30;15.73;;;6.00;54.40;;;;;;5035419;28;20342;-70
2022/03/06 00:55:41;;;;;;;30.00;13.73;;;5.90;54.40;;;;;;5040581;28;20051;-70
2022/03/06 00:58:06;;;;;;;27.27;14.80;;;5.90;54.40;;;;;;5053081;28;20147;-70
2022/03/06 01:00:37;;;;;;;23.70;13.63;;;5.90;54.50;;;;;;5036604;28;20340;-70
2022/03/06 01:03:08;;;;;;;25.60;15.05;;;5.80;54.50;;;;;;5033211;28;20034;-71
2022/03/06 01:05:34;;;;;;;24.40;14.93;;;5.80;54.60;;;;;;5041752;28;20029;-71
2022/03/06 01:08:00;;;;;;;25.63;15.63;;;5.80;54.70;;;;;;5052591;28;20037;-70
2022/03/06 01:10:26;;;;;;;24.05;14.65;;;5.80;54.70;;;;;;5035227;28;20090;-71
2022/03/06 01:12:52;;;;;;;29.10;16.07;;;5.70;54.70;;;;;;5039906;28;20044;-71
2022/03/06 01:15:18;;;;;;;24.43;14.80;;;5.70;54.80;;;;;;5017734;28;20520;-70
2022/03/06 01:17:44;;;;;;;27.00;15.38;;;5.70;54.90;;;;;;5041313;28;20024;-70
2022/03/06 01:20:10;;;;;;;24.75;13.43;;;5.70;54.90;;;;;;5055221;28;20457;-71
2022/03/06 01:22:36;;;;;;;21.38;12.13;;;5.70;55.00;;;;;;5035022;28;20071;-71
2022/03/06 01:25:02;;;;;;;23.85;13.80;;;5.70;55.00;;;;;;5045519;28;20061;-71
2022/03/06 01:27:27;;;;;;;26.07;14.17;;;5.60;54.90;;;;;;5046306;28;20056;-70
2022/03/06 01:29:53;;;;;;;22.77;13.50;;;5.60;54.90;;;;;;5043143;28;20149;-70
2022/03/06 01:32:18;;;;;;;22.02;13.65;;;5.60;55.00;;;;;;5050420;28;20025;-72
2022/03/06 01:34:44;;;;;;;25.17;13.70;;;5.60;55.00;;;;;;5055083;28;20022;-70
2022/03/06 01:37:09;;;;;;;24.53;15.00;;;5.60;55.00;;;;;;5055855;28;20427;-71
2022/03/06 01:39:35;;;;;;;25.13;14.60;;;5.60;55.10;;;;;;5030807;28;20021;-70
2022/03/06 01:42:01;;;;;;;25.20;14.20;;;5.60;55.10;;;;;;5021723;28;20046;-71
2022/03/06 01:44:27;;;;;;;23.27;13.50;;;5.50;55.10;;;;;;5054689;28;20033;-71
2022/03/06 01:46:52;;;;;;;20.00;12.55;;;5.50;55.10;;;;;;5055595;28;20039;-71
2022/03/06 01:49:18;;;;;;;23.40;13.00;;;5.50;55.20;;;;;;5055248;28;20401;-71
2022/03/06 01:51:44;;;;;;;25.27;14.50;;;5.50;55.30;;;;;;5056309;28;20041;-70
2022/03/06 01:54:10;;;;;;;22.93;13.53;;;5.50;55.30;;;;;;5040103;28;20057;-70
2022/03/06 01:56:36;;;;;;;23.27;13.70;;;5.40;55.30;;;;;;5036474;28;20029;-70
2022/03/06 01:59:03;;;;;;;22.83;13.10;;;5.40;55.30;;;;;;5041667;28;20473;-70
2022/03/06 02:01:30;;;;;;;22.07;14.00;;;5.40;55.40;;;;;;5056290;28;20071;-70
2022/03/06 02:03:55;;;;;;;23.80;14.48;;;5.40;55.40;;;;;;5055611;28;20203;-70
2022/03/06 02:06:22;;;;;;;23.47;13.40;;;5.40;55.50;;;;;;5055438;28;20060;-70
2022/03/06 02:08:48;;;;;;;20.77;12.60;;;5.40;55.50;;;;;;5043809;28;20028;-71
2022/03/06 02:11:15;;;;;;;20.17;12.75;;;5.40;55.50;;;;;;5055574;28;20033;-70
2022/03/06 02:13:41;;;;;;;23.95;13.40;;;5.40;55.60;;;;;;5044850;28;20126;-70
2022/03/06 02:16:07;;;;;;;22.52;14.20;;;5.30;55.50;;;;;;5037209;28;20040;-70
2022/03/06 02:18:33;;;;;;;20.98;12.52;;;5.30;55.60;;;;;;5037377;28;20025;-70
2022/03/06 02:21:00;;;;;;;20.03;13.60;;;5.30;55.70;;;;;;5037636;28;20079;-70
2022/03/06 02:23:25;;;;;;;24.70;13.47;;;5.30;55.70;;;;;;5047614;28;20123;-71
2022/03/06 02:25:51;;;;;;;24.07;13.93;;;5.30;55.70;;;;;;5054390;28;20129;-70
2022/03/06 02:28:16;;;;;;;19.90;12.73;;;5.30;55.70;;;;;;5054342;28;20362;-70
2022/03/06 02:30:43;;;;;;;22.80;13.00;;;5.30;55.80;;;;;;5039374;28;20046;-70
2022/03/06 02:33:11;;;;;;;21.90;12.83;;;5.20;55.80;;;;;;5036184;28;20029;-70
2022/03/06 02:35:37;;;;;;;18.73;12.60;;;5.20;55.80;;;;;;5036637;28;20160;-70
2022/03/06 02:38:04;;;;;;;21.80;13.17;;;5.20;55.80;;;;;;5047703;28;20446;-69
2022/03/06 02:40:37;;;;;;;20.33;13.00;;;5.20;55.90;;;;;;5055382;28;20039;-69
2022/03/06 02:43:03;;;;;;;21.00;12.50;;;5.20;55.90;;;;;;5053693;28;20029;-69
2022/03/06 02:45:28;;;;;;;20.77;12.57;;;5.20;55.80;;;;;;5047690;28;20096;-69
2022/03/06 02:47:56;;;;;;;21.70;12.70;;;5.10;55.80;;;;;;5046929;28;20537;-70
2022/03/06 02:50:25;;;;;;;22.60;14.20;;;5.10;55.80;;;;;;5042635;28;20335;-70
2022/03/06 02:52:53;;;;;;;22.53;13.37;;;5.10;55.90;;;;;;5036292;28;20114;-69
2022/03/06 02:55:19;;;;;;;21.50;13.67;;;5.10;55.90;;;;;;5037647;28;20053;-69
2022/03/06 02:57:46;;;;;;;20.93;13.73;;;5.10;55.90;;;;;;5035260;28;20110;-69
2022/03/06 03:00:14;;;;;;;19.92;13.02;;;5.00;55.90;;;;;;5047000;28;20056;-69
2022/03/06 03:02:41;;;;;;;20.33;12.70;;;5.00;55.90;;;;;;5056031;28;20474;-69
2022/03/06 03:05:08;;;;;;;22.43;13.60;;;5.00;55.90;;;;;;5038533;28;20111;-70
2022/03/06 03:07:36;;;;;;;20.20;13.00;;;5.00;56.00;;;;;;5036467;28;20076;-70
2022/03/06 03:10:02;;;;;;;19.70;13.47;;;5.00;56.00;;;;;;5051111;28;20116;-69
2022/03/06 03:12:28;;;;;;;22.53;13.97;;;4.90;56.10;;;;;;5054939;28;20108;-69
2022/03/06 03:14:53;;;;;;;21.33;13.87;;;4.90;56.10;;;;;;5052195;28;20481;-69
2022/03/06 03:17:19;;;;;;;22.60;12.93;;;4.90;56.10;;;;;;5049658;28;20117;-71
2022/03/06 03:19:44;;;;;;;21.87;12.93;;;4.90;56.10;;;;;;5048661;28;20393;-72
2022/03/06 03:22:10;;;;;;;21.07;12.83;;;4.90;56.20;;;;;;5054709;28;20124;-71
2022/03/06 03:24:35;;;;;;;20.23;13.40;;;4.90;56.20;;;;;;5044070;28;20072;-72
2022/03/06 03:27:01;;;;;;;22.83;14.13;;;4.80;56.20;;;;;;5034633;28;20034;-71
2022/03/06 03:29:27;;;;;;;21.97;13.53;;;4.80;56.20;;;;;;5035973;28;20481;-72
2022/03/06 03:31:52;;;;;;;19.53;12.53;;;4.80;56.20;;;;;;5034771;28;20042;-72
2022/03/06 03:34:18;;;;;;;19.97;12.90;;;4.80;56.20;;;;;;5038868;28;20195;-72
2022/03/06 03:36:43;;;;;;;21.33;12.97;;;4.80;56.20;;;;;;5038927;28;20482;-71
2022/03/06 03:39:09;;;;;;;20.77;13.80;;;4.80;56.30;;;;;;5036471;28;20056;-71
2022/03/06 03:41:35;;;;;;;19.33;11.27;;;4.80;56.30;;;;;;5051706;28;20350;-72
2022/03/06 03:44:02;;;;;;;21.43;13.33;;;4.70;56.30;;;;;;5030884;28;20342;-71
2022/03/06 03:46:28;;;;;;;21.83;12.87;;;4.70;56.40;;;;;;5038458;28;20025;-72
2022/03/06 03:48:53;;;;;;;22.13;13.33;;;4.70;56.40;;;;;;5036858;28;20032;-72
2022/03/06 03:51:19;;;;;;;20.43;13.40;;;4.60;56.40;;;;;;5036226;28;20079;-72
2022/03/06 03:53:44;;;;;;;21.43;12.77;;;4.70;56.50;;;;;;5023624;28;20441;-72
2022/03/06 03:56:10;;;;;;;21.47;13.00;;;4.60;56.50;;;;;;5047502;28;20090;-71
2022/03/06 03:58:35;;;;;;;21.50;12.73;;;4.60;56.50;;;;;;5053788;28;20036;-71
2022/03/06 04:01:02;;;;;;;21.83;12.97;;;4.60;56.50;;;;;;5044995;28;20369;-71
2022/03/06 04:03:27;;;;;;;21.93;13.50;;;4.60;56.50;;;;;;5053407;28;20420;-71
2022/03/06 04:05:53;;;;;;;19.33;13.30;;;4.50;56.60;;;;;;5053192;28;20025;-71
2022/03/06 04:08:19;;;;;;;20.17;11.70;;;4.60;56.60;;;;;;5024052;28;20036;-72
2022/03/06 04:10:45;;;;;;;21.97;13.43;;;4.50;56.60;;;;;;5040138;28;20454;-72
2022/03/06 04:13:11;;;;;;;20.40;13.40;;;4.50;56.70;;;;;;5036681;28;20017;-71
2022/03/06 04:15:37;;;;;;;21.33;13.37;;;4.50;56.70;;;;;;5048637;28;20453;-71
2022/03/06 04:18:03;;;;;;;22.43;14.43;;;4.50;56.70;;;;;;5053676;28;20116;-72
2022/03/06 04:20:29;;;;;;;20.13;13.07;;;4.40;56.70;;;;;;5044181;28;20013;-72
2022/03/06 04:22:55;;;;;;;20.70;13.63;;;4.40;56.80;;;;;;5053701;28;20509;-72
2022/03/06 04:25:21;;;;;;;24.03;14.87;;;4.40;56.80;;;;;;5043695;28;20034;-72
2022/03/06 04:27:47;;;;;;;20.50;13.00;;;4.40;56.80;;;;;;5040520;28;20365;-72
2022/03/06 04:30:12;;;;;;;19.03;11.80;;;4.40;56.90;;;;;;5040637;28;20049;-71
2022/03/06 04:32:38;;;;;;;23.00;14.50;;;4.40;56.90;;;;;;5054658;28;20036;-71
2022/03/06 04:35:06;;;;;;;20.60;12.83;;;4.30;57.00;;;;;;5049761;28;20078;-72
2022/03/06 04:37:31;;;;;;;22.03;13.43;;;4.30;57.10;;;;;;5035445;28;20029;-72
2022/03/06 04:39:57;;;;;;;22.60;13.37;;;4.30;57.10;;;;;;5037459;28;20389;-72
2022/03/06 04:42:23;;;;;;;17.20;12.33;;;4.30;57.10;;;;;;5052920;28;20079;-71
2022/03/06 04:44:49;;;;;;;22.90;13.50;;;4.30;57.10;;;;;;5052272;28;20072;-72
2022/03/06 04:47:14;;;;;;;22.23;12.67;;;4.30;57.20;;;;;;5049183;28;20029;-72
2022/03/06 04:49:40;;;;;;;18.30;11.80;;;4.30;57.20;;;;;;5037882;28;20032;-72
2022/03/06 04:52:06;;;;;;;18.30;11.83;;;4.30;57.30;;;;;;5041535;28;20048;-72
2022/03/06 04:54:32;;;;;;;19.17;12.63;;;4.30;57.30;;;;;;5034961;28;20040;-71
2022/03/06 04:56:57;;;;;;;25.37;14.57;;;4.20;57.30;;;;;;5031923;28;20025;-72
2022/03/06 04:59:23;;;;;;;20.37;12.63;;;4.20;57.30;;;;;;5035304;28;20017;-71
2022/03/06 05:01:49;;;;;;;21.30;12.77;;;4.20;57.40;;;;;;5016017;28;20041;-71
2022/03/06 05:04:14;;;;;;;20.97;13.37;;;4.20;57.40;;;;;;5032726;28;20071;-71
2022/03/06 05:06:40;;;;;;;21.53;12.47;;;4.20;57.50;;;;;;5034146;28;20063;-72
2022/03/06 05:09:06;;;;;;;20.43;13.30;;;4.20;57.60;;;;;;5032902;28;20466;-72
2022/03/06 05:11:33;;;;;;;20.03;12.87;;;4.20;57.60;;;;;;5032665;28;20422;-71
2022/03/06 05:13:58;;;;;;;19.63;13.47;;;4.20;57.60;;;;;;5030870;28;20017;-71
2022/03/06 05:16:24;;;;;;;17.83;12.00;;;4.20;57.60;;;;;;5033157;28;20024;-72
2022/03/06 05:18:50;;;;;;;22.83;14.23;;;4.20;57.70;;;;;;5035182;28;20108;-71
2022/03/06 05:21:15;;;;;;;18.53;12.40;;;4.20;57.70;;;;;;5019145;28;20028;-72
2022/03/06 05:23:41;;;;;;;18.00;12.40;;;4.10;57.60;;;;;;5032952;28;20404;-72
2022/03/06 05:26:07;;;;;;;18.93;12.53;;;4.10;57.60;;;;;;5042223;28;20112;-71
2022/03/06 05:28:33;;;;;;;25.43;13.20;;;4.10;57.60;;;;;;5053751;28;20021;-72
2022/03/06 05:30:59;;;;;;;20.27;12.60;;;4.10;58.20;;;;;;5049583;28;20037;-71
2022/03/06 05:33:24;;;;;;;21.60;13.43;;;4.10;57.70;;;;;;5034533;28;20098;-72
2022/03/06 05:35:50;;;;;;;20.27;12.63;;;4.10;57.70;;;;;;5048544;28;20465;-71
2022/03/06 05:38:16;;;;;;;20.57;12.90;;;4.10;57.80;;;;;;5033853;28;20083;-72
2022/03/06 05:40:42;;;;;;;19.50;12.20;;;4.00;57.80;;;;;;5035096;28;20030;-72
2022/03/06 05:43:07;;;;;;;19.07;11.87;;;4.00;57.90;;;;;;5032866;28;20029;-72
2022/03/06 05:45:33;;;;;;;21.17;12.83;;;4.00;57.90;;;;;;5034023;28;20040;-72
2022/03/06 05:47:59;;;;;;;19.87;13.77;;;4.00;58.00;;;;;;5032830;28;20048;-72
2022/03/06 05:50:24;;;;;;;21.83;13.13;;;4.00;58.00;;;;;;5043346;28;20048;-72
2022/03/06 05:52:50;;;;;;;19.80;12.87;;;4.00;58.00;;;;;;5033429;28;20124;-71
2022/03/06 05:55:16;;;;;;;19.20;12.67;;;4.00;58.00;;;;;;5033693;28;20047;-72
2022/03/06 05:57:42;;;;;;;19.07;12.33;;;4.00;58.00;;;;;;5034721;28;20018;-72
2022/03/06 06:00:08;;;;;;;17.13;11.30;;;4.00;58.00;;;;;;5048527;28;20400;-71
2022/03/06 06:02:38;;;;;;;18.33;12.07;;;4.00;58.00;;;;;;5052799;28;20062;-72
2022/03/06 06:05:06;;;;;;;19.07;12.83;;;4.00;58.10;;;;;;5045409;28;20456;-71
2022/03/06 06:07:32;;;;;;;21.20;12.77;;;4.00;58.20;;;;;;5038248;28;20034;-71
2022/03/06 06:09:58;;;;;;;18.13;11.67;;;4.00;58.20;;;;;;5038006;28;20029;-72
2022/03/06 06:12:23;;;;;;;21.13;12.97;;;4.00;58.20;;;;;;5047065;28;20040;-71
2022/03/06 06:14:49;;;;;;;20.53;12.53;;;3.90;58.20;;;;;;5056583;28;20438;-72
2022/03/06 06:17:14;;;;;;;18.23;11.83;;;4.00;58.30;;;;;;5053583;28;20025;-72
2022/03/06 06:19:40;;;;;;;19.47;13.00;;;3.90;58.90;;;;;;5055560;28;20479;-72
2022/03/06 06:22:06;;;;;;;19.30;12.67;;;3.90;58.30;;;;;;5049074;28;20159;-72
2022/03/06 06:24:31;;;;;;;20.57;13.93;;;3.90;58.40;;;;;;5051110;28;20040;-72
2022/03/06 06:26:57;;;;;;;20.07;13.43;;;3.90;58.50;;;;;;5045402;28;20040;-71
2022/03/06 06:29:23;;;;;;;20.83;13.70;;;3.90;58.60;;;;;;5036450;28;20049;-72
2022/03/06 06:31:51;;;;;;;18.83;12.70;;;3.90;58.60;;;;;;5041611;28;20347;-71
2022/03/06 06:34:17;;;;;;;20.33;13.63;;;3.90;58.70;;;;;;5037477;28;20021;-70
2022/03/06 06:36:42;;;;;;;21.67;13.17;;;3.90;58.80;;;;;;5038074;28;20028;-72
2022/03/06 06:39:09;;;;;;;19.17;13.30;;;3.90;58.80;;;;;;5022007;28;20024;-72
2022/03/06 06:41:37;;;;;;;19.67;13.03;;;3.90;58.90;;;;;;5019846;28;20029;-74
2022/03/06 06:44:04;;;;;;;21.83;13.53;;;3.90;59.00;;;;;;5035885;28;20030;-73
2022/03/06 06:46:30;;;;;;;23.57;13.87;;;3.90;59.00;;;;;;5035576;28;20033;-74
2022/03/06 06:48:55;;;;;;;22.67;14.03;;;3.90;59.10;;;;;;5042562;28;20033;-74
2022/03/06 06:51:21;;;;;;;24.27;15.13;;;3.90;59.10;;;;;;5046514;28;20037;-74
2022/03/06 06:53:46;;;;;;;21.17;12.93;;;3.90;59.10;;;;;;5056302;28;20349;-74
2022/03/06 06:56:12;;;;;;;21.00;14.13;;;3.90;59.20;;;;;;5055770;28;20079;-74
2022/03/06 06:58:39;;;;;;;19.27;13.23;;;3.90;59.20;;;;;;5040642;28;20090;-74
2022/03/06 07:01:04;;;;;;;21.63;13.90;;;3.90;59.20;;;;;;5035360;28;20033;-74
2022/03/06 07:03:30;;;;;;;19.17;13.10;;;3.90;59.30;;;;;;5019753;28;20033;-74
2022/03/06 07:05:57;;;;;;;20.50;12.90;;;4.00;59.40;;;;;;5041375;28;20041;-73
2022/03/06 07:08:23;;;;;;;20.23;12.83;;;4.00;59.40;;;;;;5019820;28;20338;-74
2022/03/06 07:10:48;;;;;;;19.60;13.47;;;4.00;59.40;;;;;;5036600;28;20450;-74
2022/03/06 07:13:14;;;;;;;20.53;12.63;;;4.10;59.50;;;;;;5036904;28;20040;-74
2022/03/06 07:15:40;;;;;;;19.00;12.07;;;4.10;59.50;;;;;;5036682;28;20116;-74
2022/03/06 07:18:05;;;;;;;18.03;11.27;;;4.20;59.40;;;;;;5041420;28;20026;-74
2022/03/06 07:20:31;;;;;;;23.17;13.57;;;4.30;59.30;;;;;;5051306;28;20094;-74
2022/03/06 07:22:57;;;;;;;19.13;12.20;;;4.40;59.30;;;;;;5043886;28;20051;-75
2022/03/06 07:25:23;;;;;;;19.47;12.23;;;4.40;59.20;;;;;;5035113;28;20059;-72
2022/03/06 07:27:49;;;;;;;16.13;11.03;;;4.50;59.10;;;;;;5022863;28;20039;-71
2022/03/06 07:30:15;;;;;;;18.20;11.40;;;4.70;59.10;;;;;;5019567;28;20060;-72
2022/03/06 07:32:42;;;;;;;15.93;10.77;;;4.80;58.90;;;;;;5037050;28;20040;-71
2022/03/06 07:35:08;;;;;;;18.03;10.80;;;4.90;58.70;;;;;;5038765;28;20394;-73
2022/03/06 07:37:34;;;;;;;16.93;11.37;;;5.00;58.50;;;;;;5035571;28;20022;-71
2022/03/06 07:39:59;;;;;;;17.77;11.03;;;5.20;58.40;;;;;;5035493;28;20033;-72
2022/03/06 07:42:25;;;;;;;16.90;11.73;;;5.30;58.30;;;;;;5045092;28;20131;-71
2022/03/06 07:44:50;;;;;;;16.13;11.03;;;5.30;58.20;;;;;;5035935;28;20060;-72
2022/03/06 07:47:16;;;;;;;13.90;9.73;;;5.40;58.10;;;;;;5037172;28;20025;-72
2022/03/06 07:49:42;;;;;;;17.07;10.60;;;5.50;58.00;;;;;;5017795;28;20477;-72
2022/03/06 07:52:07;;;;;;;14.50;9.80;;;5.60;57.90;;;;;;5035200;28;20366;-72
2022/03/06 07:54:33;;;;;;;15.27;9.53;;;5.70;57.90;;;;;;5053926;28;20033;-72
2022/03/06 07:56:58;;;;;;;12.73;8.87;;;5.80;57.80;;;;;;5036564;28;20025;-72
2022/03/06 07:59:25;;;;;;;15.47;10.13;;;5.90;57.60;;;;;;5048252;28;20527;-72
2022/03/06 08:01:54;;;;;;;15.30;10.23;;;6.00;57.50;;;;;;5056216;28;20108;-72
2022/03/06 08:04:20;;;;;;;14.13;9.53;;;6.10;57.30;;;;;;5038092;28;20025;-72
2022/03/06 08:06:49;;;;;;;14.98;9.35;;;6.20;57.10;;;;;;5039403;28;20033;-72
2022/03/06 08:09:15;;;;;;;13.60;8.93;;;6.40;56.90;;;;;;5039325;28;20036;-73
2022/03/06 08:11:41;;;;;;;15.17;9.07;;;6.40;56.60;;;;;;5017219;28;20117;-73
2022/03/06 08:14:07;;;;;;;14.10;8.53;;;6.50;56.50;;;;;;5045667;28;20109;-73
2022/03/06 08:16:33;;;;;;;12.37;8.07;;;6.70;56.30;;;;;;5042523;28;20025;-72
2022/03/06 08:18:58;;;;;;;12.77;8.27;;;6.90;56.00;;;;;;5049805;28;20043;-73
2022/03/06 08:21:24;;;;;;;13.70;8.33;;;7.10;55.80;;;;;;5051172;28;20020;-73
2022/03/06 08:23:51;;;;;;;13.80;7.83;;;7.20;55.50;;;;;;5048069;28;20029;-73
2022/03/06 08:26:17;;;;;;;13.48;7.85;;;7.30;55.30;;;;;;5050675;28;20074;-72
2022/03/06 08:28:43;;;;;;;14.73;8.53;;;7.40;55.20;;;;;;5033693;28;20048;-73
2022/03/06 08:31:09;;;;;;;12.90;7.55;;;7.60;54.90;;;;;;5040926;28;20063;-72
2022/03/06 08:33:34;;;;;;;13.45;7.63;;;7.70;54.60;;;;;;5040269;28;20030;-71
2022/03/06 08:36:00;;;;;;;14.88;7.25;;;7.80;54.40;;;;;;5027235;28;20069;-72
2022/03/06 08:38:26;;;;;;;13.60;8.20;;;7.90;54.10;;;;;;5050334;28;20067;-72
2022/03/06 08:40:51;;;;;;;13.63;7.68;;;8.10;54.00;;;;;;5052398;28;20399;-74
2022/03/06 08:43:17;;;;;;;12.70;7.95;;;8.10;53.90;;;;;;5035448;28;20358;-73
2022/03/06 08:45:43;;;;;;;13.40;7.80;;;8.20;53.60;;;;;;5033705;28;20052;-73
2022/03/06 08:48:09;;;;;;;11.48;7.57;;;8.40;53.50;;;;;;5039357;28;20446;-73
2022/03/06 08:50:34;;;;;;;9.90;6.43;;;8.50;53.30;;;;;;5032116;28;20110;-73
2022/03/06 08:53:00;;;;;;;11.50;6.93;;;8.70;53.00;;;;;;5050020;28;20047;-73
2022/03/06 08:55:25;;;;;;;10.27;6.15;;;8.90;52.70;;;;;;5032719;28;20443;-68
2022/03/06 08:57:51;;;;;;;10.43;6.90;;;9.10;52.50;;;;;;5049488;28;20323;-70
2022/03/06 09:00:17;;;;;;;11.60;6.82;;;9.20;52.20;;;;;;5045309;28;20021;-71
2022/03/06 09:02:42;;;;;;;9.95;6.55;;;9.40;51.90;;;;;;5037058;28;20343;-72
2022/03/06 09:05:08;;;;;;;10.75;5.82;;;9.50;51.60;;;;;;5035466;28;20026;-71
2022/03/06 09:07:34;;;;;;;12.60;7.15;;;9.50;51.40;;;;;;5051218;28;20369;-71
2022/03/06 09:09:59;;;;;;;11.52;6.60;;;9.70;51.20;;;;;;5053561;28;20056;-72
2022/03/06 09:12:26;;;;;;;11.00;6.57;;;9.80;51.00;;;;;;5053124;28;20412;-72
2022/03/06 09:14:53;;;;;;;12.20;6.10;;;9.90;50.90;;;;;;5052998;28;20022;-72
2022/03/06 09:17:19;;;;;;;11.20;5.95;;;10.00;50.60;;;;;;5053040;28;20451;-72
2022/03/06 09:19:45;;;;;;;11.88;6.15;;;10.20;50.30;;;;;;5054480;28;20040;-72
2022/03/06 09:22:11;;;;;;;10.07;6.25;;;10.30;50.00;;;;;;5054715;28;20377;-71
2022/03/06 09:24:36;;;;;;;9.05;5.32;;;10.40;49.80;;;;;;5035431;28;20038;-72
2022/03/06 09:27:02;;;;;;;10.18;5.40;;;10.50;49.60;;;;;;5034489;28;20104;-69
2022/03/06 09:29:28;;;;;;;8.35;4.88;;;10.60;49.20;;;;;;5016448;28;20446;-69
2022/03/06 09:31:54;;;;;;;9.57;4.75;;;10.80;49.00;;;;;;5045088;28;20033;-71
2022/03/06 09:34:19;;;;;;;9.05;4.72;;;10.90;48.70;;;;;;5052818;28;20029;-72
2022/03/06 09:36:46;;;;;;;10.77;5.20;;;11.00;48.40;;;;;;5054034;28;20457;-72
2022/03/06 09:39:15;;;;;;;9.93;4.80;;;11.10;48.30;;;;;;5054345;28;20037;-72
2022/03/06 09:41:41;;;;;;;7.93;4.35;;;11.20;48.10;;;;;;5055888;28;20392;-72
2022/03/06 09:44:09;;;;;;;8.48;4.65;;;11.20;48.00;;;;;;5057692;28;20116;-72
2022/03/06 09:46:36;;;;;;;8.35;4.93;;;11.30;47.80;;;;;;5057749;28;20434;-72
2022/03/06 09:49:03;;;;;;;11.43;5.55;;;11.30;47.50;;;;;;5057871;28;20069;-72
2022/03/06 09:51:38;;;;;;;12.50;5.57;;;11.30;47.40;;;;;;5040208;28;20041;-72
2022/03/06 09:54:04;;;;;;;7.88;4.65;;;11.40;47.30;;;;;;5043084;28;20026;-72
2022/03/06 09:56:30;;;;;;;8.43;4.40;;;11.40;47.20;;;;;;5037847;28;20435;-72
2022/03/06 09:58:56;;;;;;;8.98;4.85;;;11.50;47.00;;;;;;5036392;28;20116;-72
2022/03/06 10:01:21;;;;;;;8.10;4.47;;;11.60;46.80;;;;;;5038148;28;20032;-72
2022/03/06 10:03:47;;;;;;;10.27;4.63;;;11.60;46.60;;;;;;5038013;28;20034;-72
2022/03/06 10:06:12;;;;;;;9.20;4.80;;;11.70;46.40;;;;;;5036360;28;20025;-72
2022/03/06 10:08:38;;;;;;;8.57;4.57;;;11.70;46.10;;;;;;5019734;28;20485;-72
2022/03/06 10:11:08;;;;;;;8.68;4.57;;;11.70;46.00;;;;;;5037647;28;20083;-72
2022/03/06 10:13:42;;;;;;;10.23;4.57;;;11.70;45.90;;;;;;5037153;28;20141;-72
2022/03/06 10:16:26;;;;;;;8.27;4.38;;;11.70;46.00;;;;;;5048601;28;20036;-72
2022/03/06 10:18:54;;;;;;;8.35;4.35;;;11.80;45.50;;;;;;5056258;28;20397;-72
2022/03/06 10:21:25;;;;;;;8.57;4.65;;;11.90;45.50;;;;;;5057617;28;20025;-72
2022/03/06 10:23:57;;;;;;;8.43;4.80;;;11.90;45.20;;;;;;5039580;28;20032;-72
2022/03/06 10:26:25;;;;;;;8.65;4.15;;;12.00;45.00;;;;;;5056097;28;20017;-72
2022/03/06 10:28:58;;;;;;;8.70;4.38;;;12.00;44.80;;;;;;5054649;28;20441;-72
2022/03/06 10:31:30;;;;;;;8.50;4.60;;;12.00;44.60;;;;;;5051735;28;20343;-73
2022/03/06 10:34:12;;;;;;;9.27;4.55;;;12.00;44.40;;;;;;5036948;28;20350;-72
2022/03/06 10:36:45;;;;;;;7.47;4.03;;;12.10;44.30;;;;;;5045067;28;20033;-72
2022/03/06 10:39:21;;;;;;;8.38;4.28;;;12.10;44.20;;;;;;5038390;28;20383;-72
2022/03/06 10:41:49;;;;;;;8.95;4.40;;;12.20;43.90;;;;;;5043696;28;20033;-74
2022/03/06 10:44:16;;;;;;;8.48;4.50;;;12.20;43.90;;;;;;5042611;28;20354;-71
2022/03/06 10:46:56;;;;;;;8.73;4.78;;;12.30;43.60;;;;;;5049976;28;20032;-71
2022/03/06 10:49:21;;;;;;;8.43;4.60;;;12.30;43.40;;;;;;5038526;28;20030;-72
2022/03/06 10:51:50;;;;;;;8.23;4.90;;;12.30;43.30;;;;;;5051319;28;20044;-71
2022/03/06 10:54:17;;;;;;;9.00;4.68;;;12.30;43.10;;;;;;5053116;28;20028;-71
2022/03/06 10:56:46;;;;;;;7.70;4.38;;;12.30;42.80;;;;;;5037978;28;20029;-71
2022/03/06 10:59:14;;;;;;;9.50;4.70;;;12.30;42.70;;;;;;5019221;28;20087;-71
2022/03/06 11:01:39;;;;;;;11.32;4.43;;;12.20;42.60;;;;;;5036564;28;20036;-71
2022/03/06 11:04:06;;;;;;;8.30;5.07;;;12.30;42.50;;;;;;5052919;28;20029;-71
2022/03/06 11:06:40;;;;;;;8.65;4.47;;;12.20;42.20;;;;;;5036120;28;20064;-71
2022/03/06 11:09:14;;;;;;;8.70;4.68;;;12.20;41.90;;;;;;5055198;28;20075;-71
2022/03/06 11:11:50;;;;;;;8.95;4.93;;;12.30;42.30;;;;;;5052830;28;20356;-72
2022/03/06 11:14:17;;;;;;;8.02;4.57;;;12.20;41.60;;;;;;5050202;28;20101;-71
2022/03/06 11:16:42;;;;;;;7.82;4.18;;;12.20;41.70;;;;;;5046113;28;20435;-71
2022/03/06 11:19:09;;;;;;;7.80;4.43;;;12.30;41.50;;;;;;5018343;28;20104;-71
2022/03/06 11:21:38;;;;;;;9.35;4.95;;;12.30;41.30;;;;;;5035814;28;20030;-71
2022/03/06 11:24:20;;;;;;;10.15;4.40;;;12.30;41.10;;;;;;5034948;28;20033;-71
2022/03/06 11:26:48;;;;;;;;;;;12.30;40.70;;;;;;5043577;28;20396;-71
2022/03/06 11:29:54;;;;;;;8.65;4.00;;;12.30;41.20;;;;;;5047673;28;19948;-70
2022/03/06 11:32:26;;;;;;;8.50;4.38;;;12.30;40.90;;;;;;5037951;28;20043;-71
2022/03/06 11:34:58;;;;;;;7.05;4.38;;;12.40;41.00;;;;;;5047225;28;20033;-69
2022/03/06 11:37:27;;;;;;;7.45;4.18;;;12.40;40.90;;;;;;5051262;28;20032;-71
2022/03/06 11:39:54;;;;;;;8.68;3.97;;;12.50;40.60;;;;;;5044004;28;20029;-71
2022/03/06 11:42:53;;;;;;;7.75;4.15;;;12.40;40.30;;;;;;5018898;28;20053;-71
2022/03/06 11:45:44;;;;;;;7.72;4.00;;;12.40;40.00;;;;;;5034570;28;20044;-71
2022/03/06 11:48:10;;;;;;;8.52;4.85;;;12.30;40.00;;;;;;5042178;28;20044;-74
2022/03/06 11:50:36;;;;;;;8.35;4.60;;;12.30;40.00;;;;;;5039599;28;20128;-71
2022/03/06 11:53:19;;;;;;;7.95;4.65;;;12.30;39.80;;;;;;5039593;28;20477;-71
2022/03/06 11:55:45;;;;;;;8.45;4.60;;;12.30;39.60;;;;;;5040893;28;20116;-71
2022/03/06 11:58:11;;;;;;;7.47;4.47;;;12.30;39.70;;;;;;5039624;28;20160;-71
2022/03/06 12:00:37;;;;;;;9.40;4.50;;;12.40;39.70;;;;;;5054084;28;20434;-71
2022/03/06 12:03:03;;;;;;;9.05;4.93;;;12.40;39.60;;;;;;5030976;28;20404;-71
2022/03/06 12:05:54;;;;;;;8.30;4.28;;;12.40;39.50;;;;;;5044778;28;20151;-71
2022/03/06 12:08:24;;;;;;;8.13;4.40;;;12.40;39.40;;;;;;5047956;28;20064;-71
2022/03/06 12:10:51;;;;;;;8.20;4.25;;;12.40;39.40;;;;;;5034040;28;20091;-72
2022/03/06 12:13:18;;;;;;;8.07;4.30;;;12.50;39.50;;;;;;5034614;28;20142;-71
2022/03/06 12:16:01;;;;;;;7.88;4.18;;;12.30;39.50;;;;;;5035082;28;20033;-71
2022/03/06 12:18:27;;;;;;;8.73;4.70;;;12.10;39.70;;;;;;5053008;28;20028;-72
2022/03/06 12:20:53;;;;;;;8.75;4.32;;;12.00;39.90;;;;;;5053938;28;20052;-71
2022/03/06 12:23:21;;;;;;;8.18;4.28;;;12.00;40.00;;;;;;5050704;28;20116;-69
2022/03/06 12:25:53;;;;;;;8.20;4.40;;;12.00;40.00;;;;;;5053017;28;20060;-69
2022/03/06 12:28:20;;;;;;;7.90;4.35;;;12.00;39.90;;;;;;5051888;28;20025;-69
2022/03/06 12:30:47;;;;;;;7.65;4.22;;;12.00;39.90;;;;;;5044188;28;20049;-69
2022/03/06 12:33:34;;;;;;;7.63;4.57;;;12.00;39.80;;;;;;5050273;28;20102;-69
2022/03/06 12:36:07;;;;;;;9.10;5.00;;;12.00;39.60;;;;;;5054601;28;20370;-69
2022/03/06 12:38:34;;;;;;;7.85;4.00;;;12.00;39.50;;;;;;5050799;28;20143;-69
2022/03/06 12:41:00;;;;;;;10.15;5.10;;;12.00;39.50;;;;;;5035019;28;20029;-69